Time;durP1;ratioP1;P1;durP2;ratioP2;P2;SDS_P1;SDS_P2;PMS_P1;PMS_P2;Temp;Humidity;BMP_temperature;BMP_pressure;BME280_temperature;BME280_humidity;BME280_pressure;Samples;Min_cycle;Max_cycle;Signal;HPM_P1;HPM_P2
2023/10/16 00:03:51;;;;;;;3.27;2.97;;;9.40;89.50;;;;;;10562548;27;20331;-79
2023/10/16 00:09:15;;;;;;;3.50;3.20;;;9.40;89.50;;;;;;10589306;28;20366;-78
2023/10/16 00:14:37;;;;;;;4.33;3.43;;;9.40;90.10;;;;;;10578227;28;20406;-78
2023/10/16 00:20:00;;;;;;;3.30;3.00;;;9.40;89.60;;;;;;10580518;28;20223;-78
2023/10/16 00:25:29;;;;;;;4.33;3.33;;;9.40;89.90;;;;;;10573308;28;20695;-79
2023/10/16 00:30:52;;;;;;;4.33;3.50;;;9.30;89.60;;;;;;10556719;28;20630;-78
2023/10/16 00:36:14;;;;;;;3.33;3.03;;;9.30;89.60;;;;;;10560897;28;20715;-78
2023/10/16 00:41:37;;;;;;;3.53;3.10;;;9.20;89.40;;;;;;10569167;28;20211;-79
2023/10/16 00:47:01;;;;;;;4.00;3.27;;;9.10;89.80;;;;;;10579105;28;20699;-79
2023/10/16 00:52:24;;;;;;;4.43;3.67;;;9.10;90.00;;;;;;10577525;28;20200;-78
2023/10/16 00:57:49;;;;;;;3.80;3.50;;;9.10;90.00;;;;;;10575997;28;20238;-78
2023/10/16 01:03:11;;;;;;;3.60;3.30;;;9.10;89.80;;;;;;10553844;28;20233;-78
2023/10/16 01:08:34;;;;;;;3.87;3.50;;;9.10;89.90;;;;;;10558976;28;20622;-78
2023/10/16 01:13:58;;;;;;;3.60;3.17;;;9.10;89.90;;;;;;10566933;28;20192;-78
2023/10/16 01:19:21;;;;;;;3.57;3.27;;;9.00;89.70;;;;;;10575197;28;20229;-78
2023/10/16 01:24:45;;;;;;;4.07;3.57;;;9.00;90.00;;;;;;10573318;28;20240;-79
2023/10/16 01:30:09;;;;;;;3.53;3.23;;;9.00;90.00;;;;;;10582202;28;20305;-79
2023/10/16 01:35:31;;;;;;;3.47;3.17;;;8.90;89.80;;;;;;10560565;28;20206;-78
2023/10/16 01:41:07;;;;;;;3.57;3.37;;;8.90;90.00;;;;;;10551835;28;20211;-79
2023/10/16 01:46:29;;;;;;;4.50;3.30;;;8.80;90.00;;;;;;10545094;28;20221;-79
2023/10/16 01:51:51;;;;;;;4.07;3.50;;;8.70;90.00;;;;;;10543646;28;20204;-79
2023/10/16 01:57:16;;;;;;;3.60;3.30;;;8.70;90.20;;;;;;10565055;28;20232;-78
2023/10/16 02:02:39;;;;;;;4.63;3.13;;;8.70;90.30;;;;;;10586026;28;20202;-78
2023/10/16 02:08:02;;;;;;;4.23;3.40;;;8.70;90.30;;;;;;10562787;28;20229;-78
2023/10/16 02:13:25;;;;;;;3.27;3.07;;;8.70;90.30;;;;;;10578499;28;20259;-78
2023/10/16 02:18:48;;;;;;;3.10;2.83;;;8.70;90.40;;;;;;10577765;28;20216;-79
2023/10/16 02:24:11;;;;;;;5.77;3.40;;;8.70;90.30;;;;;;10583215;28;20231;-78
2023/10/16 02:29:35;;;;;;;3.87;3.50;;;8.70;90.30;;;;;;10542793;28;20207;-78
2023/10/16 02:34:59;;;;;;;3.50;3.20;;;8.70;90.20;;;;;;10566722;28;20197;-78
2023/10/16 02:40:25;;;;;;;4.83;3.80;;;8.60;90.30;;;;;;10539445;28;20223;-78
2023/10/16 02:45:51;;;;;;;3.77;3.27;;;8.60;90.30;;;;;;10548383;28;20285;-78
2023/10/16 02:51:16;;;;;;;3.53;3.23;;;8.50;90.10;;;;;;10555266;28;20211;-78
2023/10/16 02:56:42;;;;;;;3.50;3.20;;;8.50;90.30;;;;;;10555600;28;20217;-78
2023/10/16 03:02:13;;;;;;;3.63;3.23;;;8.40;90.10;;;;;;10523941;28;20256;-79
2023/10/16 03:07:35;;;;;;;3.43;3.13;;;8.40;90.20;;;;;;10561949;28;20224;-79
2023/10/16 03:13:05;;;;;;;3.43;3.23;;;8.30;90.30;;;;;;10557982;28;20202;-77
2023/10/16 03:18:29;;;;;;;3.80;3.60;;;8.30;90.50;;;;;;10524743;28;20293;-78
2023/10/16 03:23:51;;;;;;;3.77;3.50;;;8.30;90.50;;;;;;10546909;28;20226;-79
2023/10/16 03:29:14;;;;;;;5.60;3.70;;;8.30;90.30;;;;;;10547112;28;20294;-78
2023/10/16 03:34:37;;;;;;;4.53;4.10;;;8.20;90.10;;;;;;10571698;28;20198;-78
2023/10/16 03:40:04;;;;;;;3.93;3.67;;;8.20;90.20;;;;;;10541123;28;20600;-79
2023/10/16 03:45:27;;;;;;;4.00;3.70;;;8.10;90.40;;;;;;10546152;28;20220;-78
2023/10/16 03:50:56;;;;;;;3.67;3.47;;;8.10;90.60;;;;;;10548007;28;20247;-78
2023/10/16 03:56:18;;;;;;;4.37;4.00;;;8.10;90.40;;;;;;10559476;28;20259;-79
2023/10/16 04:01:42;;;;;;;4.70;3.40;;;8.20;90.40;;;;;;10533624;28;20197;-78
2023/10/16 04:07:06;;;;;;;5.27;3.90;;;8.10;90.30;;;;;;10538430;28;20253;-78
2023/10/16 04:12:33;;;;;;;5.40;4.13;;;8.10;90.40;;;;;;10534642;28;20589;-78
2023/10/16 04:18:04;;;;;;;4.73;4.33;;;8.10;90.40;;;;;;10535211;28;20617;-78
2023/10/16 04:23:37;;;;;;;6.27;4.40;;;8.00;90.50;;;;;;10542425;28;20220;-78
2023/10/16 04:34:45;;;;;;;4.47;4.17;;;7.90;90.40;;;;;;10565423;28;20194;-78
2023/10/16 04:51:52;;;;;;;5.07;4.67;;;7.80;90.30;;;;;;10577843;28;20195;-78
2023/10/16 04:57:47;;;;;;;6.93;4.70;;;7.80;90.40;;;;;;10537651;28;20235;-79
2023/10/16 05:03:22;;;;;;;7.00;4.93;;;7.70;90.50;;;;;;10536599;28;20204;-79
2023/10/16 05:14:22;;;;;;;6.73;5.47;;;7.70;90.50;;;;;;10528570;28;20522;-78
2023/10/16 05:19:53;;;;;;;6.30;5.73;;;7.70;90.50;;;;;;10525136;28;20220;-79
2023/10/16 06:16:22;;;;;;;4.77;4.37;;;7.50;90.80;;;;;;10591972;27;20267;-77
2023/10/16 06:21:47;;;;;;;6.23;5.63;;;7.60;91.00;;;;;;10585609;28;20252;-77
2023/10/16 06:27:10;;;;;;;5.70;5.20;;;7.70;90.90;;;;;;10579669;28;20231;-78
2023/10/16 06:32:36;;;;;;;5.20;4.70;;;7.70;90.70;;;;;;10577709;28;20216;-78
2023/10/16 06:38:00;;;;;;;5.93;5.33;;;7.70;90.80;;;;;;10577688;28;20532;-78
2023/10/16 06:43:25;;;;;;;7.20;4.93;;;7.70;90.80;;;;;;10573132;28;20193;-78
2023/10/16 06:48:48;;;;;;;5.10;4.60;;;7.70;90.90;;;;;;10538420;28;20275;-77
2023/10/16 06:54:12;;;;;;;4.93;4.53;;;7.70;91.00;;;;;;10561821;28;20211;-78
2023/10/16 06:59:34;;;;;;;5.23;4.50;;;7.70;91.00;;;;;;10575761;28;20594;-78
2023/10/16 07:04:56;;;;;;;5.60;5.10;;;7.80;91.10;;;;;;10580830;28;20206;-77
2023/10/16 07:10:20;;;;;;;5.53;5.13;;;7.80;91.20;;;;;;10577566;28;20223;-78
2023/10/16 07:15:46;;;;;;;5.10;4.70;;;7.80;91.30;;;;;;10579087;27;20202;-78
2023/10/16 07:21:08;;;;;;;5.83;5.30;;;8.00;91.40;;;;;;10566141;28;20219;-77
2023/10/16 07:26:34;;;;;;;5.90;5.40;;;8.10;91.40;;;;;;10578653;28;20278;-78
2023/10/16 07:31:57;;;;;;;6.10;5.60;;;8.20;91.40;;;;;;10558185;28;20223;-78
2023/10/16 07:37:19;;;;;;;8.57;6.27;;;8.30;91.20;;;;;;10577738;28;20218;-77
2023/10/16 07:42:46;;;;;;;10.37;6.13;;;8.40;90.60;;;;;;10560512;28;20243;-78
2023/10/16 07:48:13;;;;;;;7.10;6.50;;;8.50;91.00;;;;;;10567933;22;20233;-77
2023/10/16 07:53:39;;;;;;;6.97;6.23;;;8.70;90.90;;;;;;10441369;28;20230;-77
2023/10/16 07:59:10;;;;;;;6.77;5.83;;;8.80;90.60;;;;;;10450618;28;20344;-77
2023/10/16 08:04:36;;;;;;;6.20;5.60;;;8.80;90.80;;;;;;10450444;28;20189;-77
2023/10/16 08:10:28;;;;;;;5.00;4.50;;;8.90;90.80;;;;;;10394339;28;20216;-77
2023/10/16 08:15:48;;;;;;;6.60;5.90;;;9.00;90.90;;;;;;10446988;28;20192;-77
2023/10/16 08:21:16;;;;;;;5.70;5.17;;;9.20;90.40;;;;;;10448497;28;20217;-77
2023/10/16 08:26:42;;;;;;;6.50;5.33;;;9.30;90.80;;;;;;10448266;28;20201;-78
2023/10/16 08:37:42;;;;;;;8.53;6.40;;;9.60;90.70;;;;;;10449898;28;20200;-78
2023/10/16 08:43:07;;;;;;;9.20;6.27;;;9.70;90.60;;;;;;10434561;28;20194;-78
2023/10/16 08:48:31;;;;;;;7.40;6.07;;;9.90;90.40;;;;;;10450167;28;20229;-77
2023/10/16 08:53:59;;;;;;;14.03;6.60;;;10.10;89.70;;;;;;10447700;28;20230;-77
2023/10/16 08:59:25;;;;;;;8.20;6.50;;;10.20;89.10;;;;;;10443863;28;20686;-78
2023/10/16 09:04:49;;;;;;;7.37;6.70;;;10.30;89.00;;;;;;10441381;28;20593;-77
2023/10/16 09:10:12;;;;;;;7.30;6.00;;;10.50;89.40;;;;;;10444756;28;20232;-77
2023/10/16 09:15:38;;;;;;;6.43;5.83;;;10.60;88.90;;;;;;10443415;28;20561;-78
2023/10/16 09:21:04;;;;;;;7.00;5.83;;;10.80;87.40;;;;;;10448672;28;20319;-78
2023/10/16 09:26:28;;;;;;;7.53;6.30;;;10.90;87.70;;;;;;10445964;28;20204;-78
2023/10/16 09:31:51;;;;;;;8.50;5.53;;;10.90;87.40;;;;;;10438517;28;20597;-78
2023/10/16 09:37:15;;;;;;;6.20;5.17;;;11.10;88.20;;;;;;10447124;28;20281;-78
2023/10/16 09:42:45;;;;;;;6.03;5.47;;;11.20;88.10;;;;;;10449796;28;20740;-78
2023/10/16 09:48:19;;;;;;;6.37;5.30;;;11.30;87.70;;;;;;10448234;28;20272;-78
2023/10/16 09:53:43;;;;;;;6.03;5.43;;;11.40;86.00;;;;;;10447764;28;20221;-78
2023/10/16 09:59:12;;;;;;;7.90;5.67;;;11.50;85.60;;;;;;10446534;28;20306;-77
2023/10/16 10:04:36;;;;;;;7.63;5.80;;;11.50;87.00;;;;;;10457920;28;20331;-78
2023/10/16 10:10:39;;;;;;;6.47;5.93;;;11.50;85.60;;;;;;10452467;28;20698;-78
2023/10/16 10:15:46;;;;;;;7.90;5.03;;;11.50;86.50;;;;;;10455199;28;20697;-78
2023/10/16 10:21:18;;;;;;;5.33;4.90;;;11.50;86.30;;;;;;10457586;28;20222;-78
2023/10/16 10:26:48;;;;;;;5.77;4.27;;;11.50;85.70;;;;;;10455489;28;20263;-78
2023/10/16 10:32:12;;;;;;;5.07;4.57;;;11.50;85.60;;;;;;10441290;28;20230;-79
2023/10/16 10:38:07;;;;;;;5.07;4.10;;;11.50;85.00;;;;;;10448379;28;20194;-78
2023/10/16 10:43:46;;;;;;;3.80;3.50;;;11.50;85.80;;;;;;10452651;28;20186;-78
2023/10/16 10:49:15;;;;;;;4.60;4.20;;;11.50;85.30;;;;;;10450646;28;20241;-79
2023/10/16 10:54:42;;;;;;;3.53;3.23;;;11.50;85.00;;;;;;10453506;28;20233;-78
2023/10/16 11:05:45;;;;;;;3.07;2.87;;;11.60;83.90;;;;;;10456180;28;20209;-79
2023/10/16 11:11:11;;;;;;;1.60;1.50;;;11.70;83.10;;;;;;10454885;28;20685;-78
2023/10/16 11:16:41;;;;;;;2.47;1.90;;;11.70;80.60;;;;;;10456049;28;20202;-78
2023/10/16 11:22:09;;;;;;;3.60;2.53;;;11.80;79.50;;;;;;10449619;28;20217;-79
2023/10/16 11:27:31;;;;;;;2.30;2.10;;;11.90;80.30;;;;;;10456686;28;20686;-78
2023/10/16 11:32:55;;;;;;;4.03;2.50;;;12.00;80.20;;;;;;10452802;28;20237;-79
2023/10/16 11:38:28;;;;;;;2.00;1.80;;;12.00;79.10;;;;;;10445815;28;20222;-79
2023/10/16 11:43:52;;;;;;;3.17;2.50;;;12.10;80.10;;;;;;10445100;28;20206;-78
2023/10/16 11:49:23;;;;;;;2.60;2.40;;;12.20;80.50;;;;;;10453281;28;20237;-79
2023/10/16 11:54:46;;;;;;;2.10;1.90;;;12.20;80.50;;;;;;10450646;28;20632;-78
2023/10/16 12:00:15;;;;;;;2.20;2.07;;;12.30;78.80;;;;;;10447773;28;20901;-78
2023/10/16 12:05:39;;;;;;;2.53;2.37;;;12.40;79.30;;;;;;10447579;28;20190;-78
2023/10/16 12:11:03;;;;;;;2.67;2.43;;;12.40;79.70;;;;;;10450835;28;20754;-78
2023/10/16 12:16:25;;;;;;;5.23;3.87;;;12.50;80.80;;;;;;10451277;28;20197;-78
2023/10/16 12:21:50;;;;;;;2.70;2.50;;;12.50;78.90;;;;;;10451348;28;20217;-79
2023/10/16 12:27:15;;;;;;;2.30;2.20;;;12.60;78.50;;;;;;10454355;28;20198;-78
2023/10/16 12:32:37;;;;;;;2.40;2.30;;;12.60;79.00;;;;;;10452659;28;20299;-78
2023/10/16 12:38:04;;;;;;;2.80;2.33;;;12.80;77.90;;;;;;10437475;28;20220;-79
2023/10/16 12:43:28;;;;;;;3.40;2.60;;;12.70;78.90;;;;;;10453669;28;20603;-79
2023/10/16 12:48:50;;;;;;;2.40;2.30;;;12.70;78.50;;;;;;10447910;28;20236;-79
2023/10/16 12:54:15;;;;;;;2.47;2.30;;;12.80;78.90;;;;;;10451950;28;20225;-79
2023/10/16 12:59:37;;;;;;;2.37;2.27;;;12.80;77.70;;;;;;10453417;28;20221;-79
2023/10/16 13:05:01;;;;;;;3.50;2.37;;;12.80;77.00;;;;;;10444080;28;20214;-77
2023/10/16 13:10:26;;;;;;;2.23;2.13;;;12.90;77.70;;;;;;10450260;28;20228;-79
2023/10/16 13:15:52;;;;;;;2.70;1.90;;;12.90;78.70;;;;;;10449570;28;20197;-79
2023/10/16 13:21:14;;;;;;;2.13;2.03;;;12.90;77.50;;;;;;10444101;28;20233;-79
2023/10/16 13:26:38;;;;;;;2.67;2.47;;;13.00;76.60;;;;;;10451964;28;20705;-79
2023/10/16 13:32:01;;;;;;;2.63;2.20;;;13.00;76.70;;;;;;10447861;28;20716;-79
2023/10/16 13:37:23;;;;;;;2.47;2.30;;;13.10;77.60;;;;;;10458178;28;20205;-79
2023/10/16 13:42:48;;;;;;;2.60;2.40;;;13.10;75.70;;;;;;10459446;28;20194;-79
2023/10/16 13:48:16;;;;;;;2.50;2.30;;;13.20;75.90;;;;;;10480476;22;20234;-81
2023/10/16 13:53:39;;;;;;;2.27;2.17;;;13.20;76.00;;;;;;10453033;28;20229;-81
2023/10/16 13:59:03;;;;;;;1.93;1.83;;;13.20;75.70;;;;;;10470060;28;20222;-81
2023/10/16 14:04:32;;;;;;;4.53;1.77;;;13.20;75.80;;;;;;10471565;28;20197;-80
2023/10/16 14:09:56;;;;;;;2.70;1.90;;;13.30;74.90;;;;;;10476046;28;20300;-81
2023/10/16 14:15:20;;;;;;;4.90;1.90;;;13.30;74.10;;;;;;10454489;28;20241;-79
2023/10/16 14:20:45;;;;;;;4.00;1.40;;;13.30;76.20;;;;;;10456994;28;20224;-79
2023/10/16 14:26:20;;;;;;;1.50;1.40;;;13.30;73.90;;;;;;10461438;28;20248;-80
2023/10/16 14:31:46;;;;;;;4.13;1.63;;;13.30;71.70;;;;;;10464077;28;20217;-80
2023/10/16 14:37:08;;;;;;;1.83;1.70;;;13.30;74.30;;;;;;10435478;28;20202;-81
2023/10/16 14:42:30;;;;;;;1.50;1.40;;;13.40;72.90;;;;;;10458617;28;20216;-81
2023/10/16 14:47:54;;;;;;;1.70;1.60;;;13.40;71.30;;;;;;10459371;28;20700;-79
2023/10/16 14:53:19;;;;;;;2.00;1.80;;;13.40;73.70;;;;;;10467930;28;20588;-80
2023/10/16 14:58:41;;;;;;;2.03;1.87;;;13.40;73.60;;;;;;10470754;28;20217;-80
2023/10/16 15:04:05;;;;;;;1.83;1.73;;;13.40;75.10;;;;;;10450800;28;20621;-81
2023/10/16 15:09:27;;;;;;;1.80;1.70;;;13.40;72.30;;;;;;10458694;28;20225;-80
2023/10/16 15:14:49;;;;;;;4.50;1.83;;;13.40;72.30;;;;;;10448076;28;20221;-80
2023/10/16 15:20:14;;;;;;;1.70;1.60;;;13.50;71.70;;;;;;10478011;28;20228;-79
2023/10/16 15:25:37;;;;;;;1.90;1.80;;;13.50;72.20;;;;;;10456225;28;20851;-81
2023/10/16 15:30:59;;;;;;;4.33;1.60;;;13.50;74.30;;;;;;10463127;28;20718;-79
2023/10/16 15:36:23;;;;;;;1.60;1.50;;;13.40;73.70;;;;;;10466398;28;20200;-79
2023/10/16 15:41:45;;;;;;;2.90;1.60;;;13.40;73.40;;;;;;10465174;28;20236;-79
2023/10/16 15:47:08;;;;;;;2.70;1.50;;;13.40;75.10;;;;;;10484936;28;20338;-78
2023/10/16 15:52:31;;;;;;;1.77;1.67;;;13.40;73.70;;;;;;10472548;28;20233;-78
2023/10/16 15:57:56;;;;;;;2.20;2.03;;;13.40;73.80;;;;;;10450461;28;20277;-80
2023/10/16 16:03:18;;;;;;;2.90;1.80;;;13.40;73.50;;;;;;10474936;28;20678;-80
2023/10/16 16:08:43;;;;;;;2.60;2.50;;;13.30;74.20;;;;;;10483813;28;20296;-78
2023/10/16 16:14:06;;;;;;;2.10;2.00;;;13.30;73.80;;;;;;10447050;28;20221;-79
2023/10/16 16:19:28;;;;;;;2.20;2.10;;;13.30;74.40;;;;;;10470644;28;20235;-79
2023/10/16 16:24:52;;;;;;;8.10;6.37;;;13.20;75.00;;;;;;10444194;28;20205;-78
2023/10/16 16:30:16;;;;;;;8.60;7.70;;;13.10;75.90;;;;;;10439026;28;20221;-80
2023/10/16 16:35:38;;;;;;;9.53;8.63;;;13.00;76.40;;;;;;10468349;28;20355;-80
2023/10/16 16:41:03;;;;;;;25.77;22.20;;;12.90;77.20;;;;;;10451609;28;20637;-80
2023/10/16 16:46:25;;;;;;;7.40;6.60;;;12.80;77.30;;;;;;10433725;28;20216;-80
2023/10/16 16:51:50;;;;;;;4.20;3.37;;;12.80;77.50;;;;;;10465478;28;20324;-79
2023/10/16 16:57:14;;;;;;;4.30;3.30;;;12.60;77.90;;;;;;10454635;28;20223;-78
2023/10/16 17:02:37;;;;;;;2.80;2.60;;;12.60;78.50;;;;;;10455590;28;20218;-80
2023/10/16 17:08:01;;;;;;;2.67;2.27;;;12.50;78.40;;;;;;10455405;28;20818;-78
2023/10/16 17:13:24;;;;;;;4.00;2.80;;;12.40;78.50;;;;;;10467829;28;20296;-79
2023/10/16 17:18:50;;;;;;;5.00;3.83;;;12.40;78.40;;;;;;10448772;28;20760;-78
2023/10/16 17:24:12;;;;;;;4.13;3.70;;;12.30;78.40;;;;;;10438801;28;20218;-78
2023/10/16 17:29:35;;;;;;;3.37;3.17;;;12.30;78.80;;;;;;10439643;28;20236;-78
2023/10/16 17:34:58;;;;;;;3.33;3.13;;;12.20;78.80;;;;;;10430862;28;20217;-79
2023/10/16 17:40:20;;;;;;;3.07;2.87;;;12.20;79.00;;;;;;10454158;28;20217;-79
2023/10/16 17:45:44;;;;;;;4.53;4.13;;;12.20;78.30;;;;;;10446480;28;20562;-78
2023/10/16 17:51:07;;;;;;;4.83;3.53;;;12.10;78.50;;;;;;10454224;28;20394;-78
2023/10/16 17:56:29;;;;;;;3.50;3.20;;;12.10;78.90;;;;;;10449283;28;20684;-79
2023/10/16 18:01:55;;;;;;;4.00;3.60;;;12.10;78.50;;;;;;10445123;28;20217;-77
2023/10/16 18:07:17;;;;;;;3.90;3.50;;;12.00;79.10;;;;;;10444951;28;20554;-79
2023/10/16 18:12:39;;;;;;;3.93;3.63;;;12.00;80.30;;;;;;10432392;28;20727;-79
2023/10/16 18:18:03;;;;;;;4.60;3.40;;;11.90;79.30;;;;;;10448865;28;20909;-79
2023/10/16 18:23:25;;;;;;;3.53;3.33;;;11.90;79.80;;;;;;10456255;28;20204;-79
2023/10/16 18:28:49;;;;;;;3.73;3.43;;;11.90;80.00;;;;;;10458541;28;20228;-79
2023/10/16 18:34:13;;;;;;;4.53;3.90;;;11.80;80.50;;;;;;10440618;28;20583;-76
2023/10/16 18:39:37;;;;;;;5.07;4.60;;;11.70;80.60;;;;;;10442018;28;20249;-78
2023/10/16 18:44:59;;;;;;;4.13;3.83;;;11.70;81.30;;;;;;10458165;28;20973;-79
2023/10/16 18:50:23;;;;;;;5.00;4.47;;;11.60;81.30;;;;;;10460997;28;20233;-78
2023/10/16 18:55:49;;;;;;;6.37;5.00;;;11.60;81.30;;;;;;10458930;28;20221;-79
2023/10/16 19:01:11;;;;;;;5.07;4.67;;;11.60;81.30;;;;;;10450180;28;20226;-79
2023/10/16 19:06:36;;;;;;;4.60;4.20;;;11.50;81.70;;;;;;10458230;28;20202;-79
2023/10/16 19:11:59;;;;;;;4.30;3.90;;;11.50;81.70;;;;;;10467582;28;20611;-78
2023/10/16 19:17:21;;;;;;;4.60;4.20;;;11.40;82.10;;;;;;10456477;28;20201;-79
2023/10/16 19:22:45;;;;;;;4.00;3.70;;;11.40;82.30;;;;;;10454267;28;20684;-78
2023/10/16 19:28:07;;;;;;;5.07;4.20;;;11.30;82.60;;;;;;10449299;28;20228;-79
2023/10/16 19:33:29;;;;;;;5.07;4.60;;;11.20;82.70;;;;;;10438346;28;20620;-79
2023/10/16 19:38:53;;;;;;;7.30;5.67;;;11.20;83.20;;;;;;10460681;28;20225;-78
2023/10/16 19:44:16;;;;;;;5.83;5.30;;;11.10;83.10;;;;;;10453332;28;20205;-77
2023/10/16 19:49:38;;;;;;;4.50;4.03;;;11.00;83.40;;;;;;10439485;28;20251;-79
2023/10/16 19:55:04;;;;;;;5.10;4.40;;;11.00;83.60;;;;;;10455966;28;20710;-79
2023/10/16 20:00:28;;;;;;;6.10;5.10;;;10.90;83.80;;;;;;10466709;28;20301;-79
2023/10/16 20:05:51;;;;;;;5.40;5.00;;;10.90;83.80;;;;;;10472771;28;20205;-78
2023/10/16 20:11:14;;;;;;;6.20;5.70;;;10.90;83.80;;;;;;10452807;28;20225;-78
2023/10/16 20:16:37;;;;;;;7.63;5.53;;;10.80;84.40;;;;;;10455081;28;20729;-78
2023/10/16 20:21:59;;;;;;;6.93;6.13;;;10.80;84.60;;;;;;10458685;28;20261;-79
2023/10/16 20:27:23;;;;;;;6.47;5.83;;;10.80;84.60;;;;;;10443900;28;20201;-78
2023/10/16 20:32:46;;;;;;;8.33;5.37;;;10.80;85.00;;;;;;10440252;28;20694;-77
2023/10/16 20:38:11;;;;;;;6.97;4.83;;;10.70;84.40;;;;;;10450116;28;20636;-79
2023/10/16 20:43:35;;;;;;;5.00;4.60;;;10.60;84.60;;;;;;10435993;28;20648;-78
2023/10/16 20:48:57;;;;;;;5.80;5.30;;;10.60;84.60;;;;;;10445039;28;20221;-78
2023/10/16 20:54:19;;;;;;;5.03;4.40;;;10.60;84.50;;;;;;10456765;28;20222;-77
2023/10/16 20:59:44;;;;;;;7.63;4.83;;;10.50;84.80;;;;;;10464036;28;20251;-77
2023/10/16 21:05:07;;;;;;;4.43;4.10;;;10.50;84.60;;;;;;10450742;28;20674;-79
2023/10/16 21:10:31;;;;;;;4.33;4.03;;;10.40;84.70;;;;;;10452383;28;20754;-77
2023/10/16 21:15:55;;;;;;;4.20;3.90;;;10.30;84.50;;;;;;10450974;28;20453;-77
2023/10/16 21:21:17;;;;;;;4.00;3.80;;;10.30;85.00;;;;;;10436079;28;20222;-77
2023/10/16 21:26:39;;;;;;;4.30;3.90;;;10.20;84.70;;;;;;10456942;28;20305;-79
2023/10/16 21:32:03;;;;;;;4.70;4.20;;;10.20;84.70;;;;;;10451388;28;20225;-77
2023/10/16 21:37:26;;;;;;;3.80;3.50;;;10.10;84.40;;;;;;10446862;28;20563;-79
2023/10/16 21:42:49;;;;;;;4.00;3.70;;;10.00;85.00;;;;;;10452226;28;20194;-78
2023/10/16 21:48:12;;;;;;;3.50;3.30;;;10.00;84.50;;;;;;10451506;28;20755;-79
2023/10/16 21:53:36;;;;;;;3.60;3.30;;;10.00;84.60;;;;;;10454969;28;20218;-78
2023/10/16 21:58:58;;;;;;;3.17;2.97;;;9.90;86.20;;;;;;10446170;28;20225;-78
2023/10/16 22:04:23;;;;;;;3.07;2.87;;;9.80;86.00;;;;;;10456100;28;20216;-79
2023/10/16 22:09:45;;;;;;;3.97;3.67;;;9.80;86.20;;;;;;10461023;28;20255;-76
2023/10/16 22:15:10;;;;;;;3.50;3.20;;;9.80;87.20;;;;;;10457878;28;20228;-79
2023/10/16 22:20:34;;;;;;;3.10;2.83;;;9.70;86.20;;;;;;10443022;28;20229;-77
2023/10/16 22:25:57;;;;;;;2.90;2.70;;;9.70;86.30;;;;;;10458599;28;20204;-78
2023/10/16 22:31:19;;;;;;;3.33;2.67;;;9.70;86.00;;;;;;10457017;28;20218;-77
2023/10/16 22:36:43;;;;;;;3.00;2.80;;;9.70;85.30;;;;;;10457855;28;20311;-78
2023/10/16 22:42:06;;;;;;;3.47;3.17;;;9.60;85.60;;;;;;10457896;28;20333;-79
2023/10/16 22:47:28;;;;;;;2.80;2.60;;;9.60;85.10;;;;;;10457092;28;20198;-78
2023/10/16 22:52:51;;;;;;;3.20;3.00;;;9.50;85.40;;;;;;10471745;28;20224;-78
2023/10/16 22:58:14;;;;;;;3.20;2.90;;;9.40;85.40;;;;;;10445490;28;20217;-78
2023/10/16 23:03:36;;;;;;;3.60;3.30;;;9.40;85.10;;;;;;10455153;28;20201;-78
2023/10/16 23:09:00;;;;;;;2.83;2.63;;;9.30;85.20;;;;;;10466804;28;20221;-78
2023/10/16 23:14:22;;;;;;;4.83;3.20;;;9.20;85.50;;;;;;10464111;28;20222;-78
2023/10/16 23:19:45;;;;;;;2.80;2.60;;;9.10;85.80;;;;;;10460742;28;20228;-77
2023/10/16 23:25:09;;;;;;;2.70;2.60;;;9.00;85.90;;;;;;10463761;28;20193;-78
2023/10/16 23:30:33;;;;;;;3.17;2.97;;;8.90;86.10;;;;;;10460703;28;20267;-78
2023/10/16 23:35:57;;;;;;;4.30;3.60;;;8.90;86.30;;;;;;10449901;28;20312;-78
2023/10/16 23:41:27;;;;;;;3.30;3.00;;;8.80;85.60;;;;;;10469459;28;20301;-75
2023/10/16 23:46:55;;;;;;;4.00;2.97;;;8.80;85.60;;;;;;10461138;28;20194;-78
2023/10/16 23:52:22;;;;;;;3.37;3.07;;;8.70;85.90;;;;;;10439443;28;20300;-79
2023/10/16 23:57:49;;;;;;;3.40;3.10;;;8.70;86.10;;;;;;10463759;28;20206;-78
